Time;durP1;ratioP1;P1;durP2;ratioP2;P2;SDS_P1;SDS_P2;PMS_P1;PMS_P2;Temp;Humidity;BMP_temperature;BMP_pressure;BME280_temperature;BME280_humidity;BME280_pressure;Samples;Min_cycle;Max_cycle;Signal;HPM_P1;HPM_P2
2021/03/31 00:02:05;;;;;;;9.83;4.23;;;11.70;46.00;;;;;;5072203;28;20386;-79
2021/03/31 00:04:31;;;;;;;10.60;4.32;;;11.40;47.70;;;;;;5072165;28;20816;-79
2021/03/31 00:06:57;;;;;;;9.18;4.78;;;11.40;46.50;;;;;;5089815;28;20764;-79
2021/03/31 00:09:22;;;;;;;11.27;5.20;;;11.20;48.30;;;;;;5090453;28;20378;-79
2021/03/31 00:11:48;;;;;;;12.07;4.50;;;11.30;47.20;;;;;;5071967;28;20378;-79
2021/03/31 00:14:15;;;;;;;10.37;4.03;;;11.40;46.90;;;;;;5071817;28;20437;-80
2021/03/31 00:16:41;;;;;;;10.05;4.13;;;11.30;46.90;;;;;;5089527;28;20378;-79
2021/03/31 00:19:06;;;;;;;9.48;4.40;;;11.30;46.90;;;;;;5071834;28;20416;-79
2021/03/31 00:21:32;;;;;;;8.53;4.30;;;11.10;47.30;;;;;;5071778;28;20378;-79
2021/03/31 00:23:57;;;;;;;12.10;4.10;;;11.10;48.60;;;;;;5090268;28;20386;-80
2021/03/31 00:26:23;;;;;;;15.13;3.97;;;11.00;49.70;;;;;;5075362;28;20382;-79
2021/03/31 00:28:48;;;;;;;8.80;4.00;;;10.90;49.90;;;;;;5093019;28;20385;-79
2021/03/31 00:31:14;;;;;;;7.05;3.47;;;10.90;50.60;;;;;;5075043;28;20389;-79
2021/03/31 00:33:40;;;;;;;9.27;3.45;;;10.90;51.10;;;;;;5075540;28;20885;-80
2021/03/31 00:36:06;;;;;;;8.87;4.00;;;10.80;52.20;;;;;;5075132;28;20398;-79
2021/03/31 00:38:33;;;;;;;8.63;3.70;;;10.70;52.20;;;;;;5093419;28;20850;-79
2021/03/31 00:40:58;;;;;;;9.43;3.83;;;10.60;52.60;;;;;;5075330;28;20390;-79
2021/03/31 00:43:24;;;;;;;10.60;4.00;;;10.60;52.90;;;;;;5093473;28;20526;-79
2021/03/31 00:45:50;;;;;;;9.10;4.07;;;10.60;53.50;;;;;;5093329;28;20424;-79
2021/03/31 00:48:16;;;;;;;9.57;4.25;;;10.50;53.40;;;;;;5092783;28;20412;-79
2021/03/31 00:50:47;;;;;;;10.07;3.87;;;10.50;53.10;;;;;;5093030;28;20385;-79
2021/03/31 00:53:23;;;;;;;7.40;3.88;;;10.40;53.80;;;;;;5075133;28;20729;-79
2021/03/31 00:55:49;;;;;;;6.30;3.47;;;10.30;54.40;;;;;;5074709;28;20402;-79
2021/03/31 00:58:15;;;;;;;10.02;4.00;;;10.30;54.10;;;;;;5073901;28;20398;-79
2021/03/31 01:00:41;;;;;;;9.40;3.80;;;10.30;54.30;;;;;;5092877;28;20377;-79
2021/03/31 01:03:07;;;;;;;10.73;3.90;;;10.20;55.60;;;;;;5074772;28;20435;-79
2021/03/31 01:05:32;;;;;;;6.88;3.67;;;10.20;55.50;;;;;;5093057;28;20435;-79
2021/03/31 01:07:58;;;;;;;10.48;3.75;;;10.10;56.10;;;;;;5074046;28;20381;-79
2021/03/31 01:10:33;;;;;;;6.88;3.42;;;10.10;55.20;;;;;;5092641;28;20381;-79
2021/03/31 01:13:39;;;;;;;10.02;4.20;;;10.00;55.80;;;;;;5092422;28;20389;-79
2021/03/31 01:16:31;;;;;;;7.40;3.70;;;10.00;53.90;;;;;;5074936;28;20406;-79
2021/03/31 01:19:27;;;;;;;11.40;4.10;;;10.10;54.50;;;;;;5073040;28;20535;-79
2021/03/31 01:22:33;;;;;;;9.95;3.90;;;10.00;55.00;;;;;;5074484;28;20429;-79
2021/03/31 01:25:04;;;;;;;11.45;4.18;;;9.90;55.70;;;;;;5074370;28;20398;-79
2021/03/31 01:28:07;;;;;;;8.00;3.83;;;9.90;54.90;;;;;;5092486;28;20466;-79
2021/03/31 01:30:45;;;;;;;9.15;3.90;;;9.90;55.10;;;;;;5092015;28;20374;-79
2021/03/31 01:33:11;;;;;;;9.40;3.70;;;9.90;54.90;;;;;;5073858;28;20750;-79
2021/03/31 01:35:38;;;;;;;9.82;4.00;;;10.00;54.40;;;;;;5091905;28;20405;-79
2021/03/31 01:38:10;;;;;;;8.05;3.80;;;9.90;56.30;;;;;;5091857;28;20794;-79
2021/03/31 01:40:39;;;;;;;13.57;4.25;;;9.90;53.60;;;;;;5092327;28;20439;-79
2021/03/31 01:43:11;;;;;;;9.07;3.70;;;10.00;52.70;;;;;;5073758;28;20390;-79
2021/03/31 01:45:38;;;;;;;7.78;4.13;;;9.90;56.00;;;;;;5092021;28;20862;-79
2021/03/31 01:48:17;;;;;;;7.10;3.97;;;9.90;56.40;;;;;;5091509;28;20378;-79
2021/03/31 01:50:55;;;;;;;7.65;3.75;;;9.80;56.60;;;;;;5092034;28;20386;-79
2021/03/31 01:53:22;;;;;;;9.23;4.03;;;9.80;57.40;;;;;;5091575;28;20735;-79
2021/03/31 01:55:51;;;;;;;11.07;4.20;;;9.80;56.20;;;;;;5091695;28;20789;-79
2021/03/31 01:58:18;;;;;;;9.75;4.25;;;9.80;55.60;;;;;;5091893;28;20998;-79
2021/03/31 02:00:44;;;;;;;9.88;4.30;;;9.80;55.50;;;;;;5073705;28;20428;-79
2021/03/31 02:03:13;;;;;;;8.32;4.72;;;9.80;55.70;;;;;;5091876;28;20378;-79
2021/03/31 02:05:39;;;;;;;9.53;4.40;;;9.80;54.70;;;;;;5092051;28;20411;-79
2021/03/31 02:08:05;;;;;;;14.30;4.63;;;10.00;52.90;;;;;;5091689;28;20374;-79
2021/03/31 02:10:31;;;;;;;11.98;4.43;;;9.90;52.80;;;;;;5091746;28;20885;-79
2021/03/31 02:12:58;;;;;;;8.18;4.20;;;10.00;51.80;;;;;;5074077;28;20415;-79
2021/03/31 02:15:28;;;;;;;9.82;4.28;;;10.40;50.40;;;;;;5091676;28;20495;-79
2021/03/31 02:17:56;;;;;;;13.43;5.18;;;10.40;50.80;;;;;;5073462;28;20428;-79
2021/03/31 02:20:22;;;;;;;8.45;4.40;;;10.40;51.10;;;;;;5073454;28;20381;-79
2021/03/31 02:22:50;;;;;;;9.73;4.45;;;10.30;50.60;;;;;;5073257;28;20401;-79
2021/03/31 02:25:15;;;;;;;11.20;4.88;;;10.30;52.20;;;;;;5091636;28;20414;-79
2021/03/31 02:27:41;;;;;;;10.67;4.60;;;10.20;51.40;;;;;;5072569;28;20500;-79
2021/03/31 02:30:09;;;;;;;9.10;4.33;;;10.10;50.70;;;;;;5091674;28;20431;-79
2021/03/31 02:32:35;;;;;;;9.32;4.53;;;10.10;53.80;;;;;;5091387;28;20510;-79
2021/03/31 02:35:03;;;;;;;8.70;3.63;;;10.00;51.20;;;;;;5091472;28;20471;-79
2021/03/31 02:37:29;;;;;;;9.52;4.43;;;9.90;53.50;;;;;;5072235;28;20742;-79
2021/03/31 02:39:56;;;;;;;9.17;4.50;;;9.80;54.00;;;;;;5091389;28;20420;-79
2021/03/31 02:42:24;;;;;;;10.20;4.53;;;9.80;55.90;;;;;;5090855;28;20382;-79
2021/03/31 02:44:53;;;;;;;10.38;4.28;;;9.70;54.80;;;;;;5091155;28;20385;-79
2021/03/31 02:47:24;;;;;;;8.77;4.43;;;9.80;54.90;;;;;;5089643;28;20421;-79
2021/03/31 02:49:53;;;;;;;10.75;4.95;;;9.80;53.90;;;;;;5072122;28;20447;-79
2021/03/31 02:52:21;;;;;;;9.98;4.93;;;9.80;54.20;;;;;;5097860;28;20884;-79
2021/03/31 02:54:48;;;;;;;8.65;4.05;;;9.90;53.50;;;;;;5090181;28;20664;-79
2021/03/31 02:57:14;;;;;;;11.88;5.43;;;9.90;54.00;;;;;;5090003;28;20417;-79
2021/03/31 02:59:44;;;;;;;13.32;4.65;;;10.10;53.10;;;;;;5072310;28;20436;-79
2021/03/31 03:02:10;;;;;;;10.85;4.60;;;10.00;52.80;;;;;;5090198;28;20417;-79
2021/03/31 03:04:39;;;;;;;11.10;4.60;;;9.90;53.90;;;;;;5090093;28;20386;-79
2021/03/31 03:07:06;;;;;;;10.67;4.10;;;9.70;55.20;;;;;;5089984;28;20746;-79
2021/03/31 03:09:33;;;;;;;10.57;5.00;;;9.80;53.40;;;;;;5071677;28;20389;-79
2021/03/31 03:12:00;;;;;;;9.27;4.38;;;9.90;52.50;;;;;;5090362;28;20625;-78
2021/03/31 03:14:28;;;;;;;8.57;4.55;;;9.90;53.40;;;;;;5090106;28;20908;-79
2021/03/31 03:16:53;;;;;;;11.27;4.57;;;9.90;52.90;;;;;;5089465;28;20386;-79
2021/03/31 03:19:19;;;;;;;8.63;4.30;;;10.20;50.00;;;;;;5090601;28;20394;-78
2021/03/31 03:21:47;;;;;;;10.43;4.10;;;10.70;49.80;;;;;;5071791;28;20417;-79
2021/03/31 03:24:13;;;;;;;10.10;3.90;;;12.40;40.80;;;;;;5072067;28;20477;-79
2021/03/31 03:26:39;;;;;;;11.45;4.10;;;12.40;41.10;;;;;;5089675;28;20398;-79
2021/03/31 03:29:07;;;;;;;11.07;4.00;;;12.60;40.30;;;;;;5090231;28;20390;-80
2021/03/31 03:31:33;;;;;;;8.48;3.63;;;12.90;39.30;;;;;;5089818;28;20406;-80
2021/03/31 03:34:00;;;;;;;10.20;4.10;;;13.40;37.10;;;;;;5090185;28;20850;-79
2021/03/31 03:36:27;;;;;;;11.40;4.65;;;13.70;36.60;;;;;;5071647;28;20390;-79
2021/03/31 03:38:52;;;;;;;7.20;3.55;;;13.50;37.20;;;;;;5072207;28;20810;-80
2021/03/31 03:41:18;;;;;;;9.63;3.90;;;13.40;36.80;;;;;;5089932;28;20405;-79
2021/03/31 03:43:44;;;;;;;8.20;3.70;;;13.80;36.80;;;;;;5105938;28;20759;-80
2021/03/31 03:46:12;;;;;;;7.77;3.90;;;13.60;37.00;;;;;;5090762;28;20712;-79
2021/03/31 03:48:38;;;;;;;8.57;3.55;;;13.20;38.30;;;;;;5089833;28;20370;-79
2021/03/31 03:51:08;;;;;;;7.53;3.90;;;13.30;38.10;;;;;;5089952;28;20843;-79
2021/03/31 03:53:34;;;;;;;10.45;4.05;;;13.20;38.00;;;;;;5090532;28;20674;-79
2021/03/31 03:56:02;;;;;;;10.02;4.00;;;13.10;38.70;;;;;;5089966;28;20453;-79
2021/03/31 03:58:27;;;;;;;10.43;4.33;;;13.30;38.20;;;;;;5089780;28;20374;-79
2021/03/31 04:00:55;;;;;;;7.83;3.97;;;13.10;38.30;;;;;;5109573;28;20397;-79
2021/03/31 04:03:21;;;;;;;8.52;3.97;;;13.40;37.30;;;;;;5094007;28;20715;-79
2021/03/31 04:05:46;;;;;;;8.82;4.07;;;13.20;38.20;;;;;;5094214;28;20511;-79
2021/03/31 04:08:12;;;;;;;8.67;4.23;;;13.10;38.20;;;;;;5075145;28;20477;-79
2021/03/31 04:10:39;;;;;;;12.60;4.50;;;13.30;38.00;;;;;;5093923;28;20374;-79
2021/03/31 04:13:06;;;;;;;11.27;4.28;;;13.50;37.50;;;;;;5094130;28;20382;-79
2021/03/31 04:15:32;;;;;;;6.32;4.18;;;13.50;37.20;;;;;;5093507;28;20857;-79
2021/03/31 04:18:01;;;;;;;11.13;4.35;;;13.40;37.90;;;;;;5075315;28;20838;-80
2021/03/31 04:20:27;;;;;;;13.88;4.50;;;13.70;37.40;;;;;;5093622;28;20741;-80
2021/03/31 04:22:53;;;;;;;10.55;5.00;;;13.20;38.10;;;;;;5093608;28;20925;-79
2021/03/31 04:25:23;;;;;;;10.38;4.50;;;13.20;38.30;;;;;;5075617;28;20390;-79
2021/03/31 04:27:52;;;;;;;8.10;4.30;;;13.60;36.80;;;;;;5075224;28;20397;-79
2021/03/31 04:30:19;;;;;;;14.80;4.60;;;13.60;37.40;;;;;;5093452;28;20382;-79
2021/03/31 04:32:49;;;;;;;9.93;4.32;;;13.60;37.20;;;;;;5075657;28;20405;-79
2021/03/31 04:35:18;;;;;;;13.65;4.68;;;13.70;36.60;;;;;;5093505;28;20409;-78
2021/03/31 04:37:44;;;;;;;9.70;4.57;;;13.50;37.20;;;;;;5093531;28;20378;-80
2021/03/31 04:40:14;;;;;;;9.80;4.60;;;13.40;37.90;;;;;;5094004;28;20397;-80
2021/03/31 04:42:40;;;;;;;15.17;5.27;;;13.60;37.00;;;;;;5075367;28;20389;-79
2021/03/31 04:45:08;;;;;;;10.95;4.75;;;13.70;37.10;;;;;;5093615;28;20378;-79
2021/03/31 04:47:35;;;;;;;9.85;4.63;;;13.70;37.20;;;;;;5074551;28;20548;-80
2021/03/31 04:50:01;;;;;;;11.18;4.78;;;13.80;36.60;;;;;;5093563;28;20412;-79
2021/03/31 04:52:29;;;;;;;15.30;4.78;;;13.40;37.70;;;;;;5093673;28;20765;-79
2021/03/31 04:54:55;;;;;;;11.40;4.78;;;13.60;37.60;;;;;;5109041;28;20800;-79
2021/03/31 04:57:21;;;;;;;10.65;4.70;;;13.30;38.20;;;;;;5074464;28;20391;-80
2021/03/31 04:59:46;;;;;;;11.10;4.85;;;13.30;38.50;;;;;;5109001;28;20393;-80
2021/03/31 05:02:12;;;;;;;13.67;4.50;;;13.20;38.10;;;;;;5074933;28;20735;-79
2021/03/31 05:04:37;;;;;;;10.43;4.90;;;13.50;37.80;;;;;;5108938;28;20393;-80
2021/03/31 05:07:04;;;;;;;9.53;4.93;;;13.40;38.10;;;;;;5092441;28;20461;-79
2021/03/31 05:09:29;;;;;;;12.95;4.93;;;13.60;38.00;;;;;;5092792;28;20382;-79
2021/03/31 05:11:55;;;;;;;10.57;4.78;;;13.50;37.50;;;;;;5092225;28;20378;-80
2021/03/31 05:14:21;;;;;;;10.70;4.80;;;13.40;37.50;;;;;;5074461;28;20943;-80
2021/03/31 05:16:47;;;;;;;12.02;4.75;;;13.60;37.60;;;;;;5074557;28;20485;-80
2021/03/31 05:19:13;;;;;;;9.55;5.13;;;13.60;37.40;;;;;;5092252;28;20942;-79
2021/03/31 05:21:38;;;;;;;10.77;5.27;;;13.50;38.00;;;;;;5074477;28;20540;-80
2021/03/31 05:24:06;;;;;;;9.70;4.78;;;13.40;38.20;;;;;;5092543;28;20374;-79
2021/03/31 05:26:32;;;;;;;9.82;5.40;;;13.30;38.50;;;;;;5092507;28;20370;-79
2021/03/31 05:28:57;;;;;;;11.50;5.70;;;13.60;37.40;;;;;;5092538;28;20465;-80
2021/03/31 05:31:23;;;;;;;15.43;5.07;;;13.50;37.70;;;;;;5092481;28;20458;-79
2021/03/31 05:33:49;;;;;;;10.53;5.13;;;13.70;37.60;;;;;;5092490;28;20382;-79
2021/03/31 05:36:15;;;;;;;11.87;5.07;;;13.60;38.00;;;;;;5092250;28;20478;-80
2021/03/31 05:38:40;;;;;;;11.93;5.30;;;13.70;37.80;;;;;;5092275;28;20393;-80
2021/03/31 05:41:06;;;;;;;10.10;5.60;;;13.60;38.30;;;;;;5107733;28;20398;-80
2021/03/31 05:43:32;;;;;;;12.33;5.33;;;13.40;38.40;;;;;;5092545;28;20378;-80
2021/03/31 05:45:58;;;;;;;13.40;5.88;;;13.60;38.00;;;;;;5092176;28;20390;-79
2021/03/31 05:48:24;;;;;;;12.93;5.20;;;13.70;38.00;;;;;;5073901;28;20747;-80
2021/03/31 05:50:50;;;;;;;10.25;5.20;;;13.40;38.30;;;;;;5091901;28;20374;-79
2021/03/31 05:53:15;;;;;;;12.90;5.47;;;13.70;38.00;;;;;;5074096;28;20394;-79
2021/03/31 05:55:41;;;;;;;13.77;5.27;;;13.60;38.40;;;;;;5091596;28;20413;-80
2021/03/31 05:58:07;;;;;;;17.17;6.03;;;13.50;38.40;;;;;;5073191;28;20395;-79
2021/03/31 06:00:33;;;;;;;14.48;5.93;;;13.40;39.40;;;;;;5091448;28;20745;-80
2021/03/31 06:03:03;;;;;;;10.63;5.30;;;13.20;39.30;;;;;;5073102;28;20529;-79
2021/03/31 06:05:31;;;;;;;15.13;5.85;;;13.40;38.80;;;;;;5091822;28;20396;-79
2021/03/31 06:07:57;;;;;;;14.73;5.90;;;13.50;39.00;;;;;;5091284;28;20427;-79
2021/03/31 06:10:24;;;;;;;13.43;5.80;;;13.40;38.90;;;;;;5073757;28;20773;-79
2021/03/31 06:12:59;;;;;;;14.43;5.63;;;13.80;38.30;;;;;;5091675;28;20375;-79
2021/03/31 06:15:30;;;;;;;11.93;5.00;;;13.60;38.80;;;;;;5091745;28;20964;-79
2021/03/31 06:18:00;;;;;;;11.27;5.35;;;13.70;38.90;;;;;;5090844;28;20382;-79
2021/03/31 06:20:42;;;;;;;14.43;5.63;;;13.60;39.50;;;;;;5091873;28;20377;-79
2021/03/31 06:23:38;;;;;;;11.13;5.32;;;13.60;39.40;;;;;;5072904;28;20390;-79
2021/03/31 06:26:31;;;;;;;14.10;5.75;;;13.70;39.50;;;;;;5082167;28;20494;-79
2021/03/31 06:29:02;;;;;;;12.98;5.72;;;13.60;39.70;;;;;;5073116;28;20913;-79
2021/03/31 06:31:33;;;;;;;13.68;5.65;;;13.90;39.00;;;;;;5091165;28;20391;-79
2021/03/31 06:34:17;;;;;;;15.33;5.90;;;14.00;37.90;;;;;;5073020;28;20886;-79
2021/03/31 06:36:51;;;;;;;13.32;6.13;;;14.00;38.90;;;;;;5072498;28;20480;-79
2021/03/31 06:39:25;;;;;;;24.92;6.32;;;13.90;38.50;;;;;;5090886;28;20961;-82
2021/03/31 06:41:59;;;;;;;19.10;5.88;;;13.80;39.90;;;;;;5073327;28;20894;-79
2021/03/31 06:44:40;;;;;;;12.73;5.78;;;13.70;39.90;;;;;;5072717;28;20802;-78
2021/03/31 06:50:08;;;;;;;17.70;7.07;;;14.30;38.10;;;;;;5065254;28;20417;-78
2021/03/31 06:52:34;;;;;;;17.57;6.63;;;14.30;38.50;;;;;;5071223;28;20841;-78
2021/03/31 06:55:04;;;;;;;15.53;5.80;;;14.40;38.40;;;;;;5071345;28;20417;-78
2021/03/31 06:57:35;;;;;;;14.07;6.47;;;14.20;39.20;;;;;;5089424;28;20412;-78
2021/03/31 07:00:13;;;;;;;10.55;6.00;;;14.40;38.40;;;;;;5090103;28;20381;-78
2021/03/31 07:02:42;;;;;;;13.80;6.30;;;14.60;37.60;;;;;;5070794;28;20436;-78
2021/03/31 07:05:09;;;;;;;13.70;5.72;;;14.80;37.70;;;;;;5090293;28;20431;-78
2021/03/31 07:07:36;;;;;;;11.60;6.15;;;14.30;39.10;;;;;;5071188;28;20901;-78
2021/03/31 07:10:14;;;;;;;11.10;6.18;;;14.50;38.70;;;;;;5090278;28;20460;-78
2021/03/31 07:12:44;;;;;;;16.27;6.07;;;14.90;36.90;;;;;;5089531;28;20367;-78
2021/03/31 07:15:12;;;;;;;15.38;6.05;;;15.00;37.00;;;;;;5071294;28;20455;-77
2021/03/31 07:17:42;;;;;;;11.57;5.97;;;15.60;35.00;;;;;;5089513;28;20374;-78
2021/03/31 07:20:09;;;;;;;15.63;5.72;;;15.50;35.50;;;;;;5089039;28;20435;-78
2021/03/31 07:22:35;;;;;;;16.50;6.78;;;15.60;36.60;;;;;;5089570;28;20378;-78
2021/03/31 07:25:01;;;;;;;15.60;6.28;;;15.70;35.90;;;;;;5088168;28;20815;-79
2021/03/31 07:27:28;;;;;;;11.77;5.40;;;16.00;35.10;;;;;;5087286;28;20373;-78
2021/03/31 07:30:07;;;;;;;13.98;6.18;;;16.10;34.90;;;;;;5071140;28;20397;-78
2021/03/31 07:32:43;;;;;;;12.55;5.70;;;16.20;35.30;;;;;;5069684;28;20376;-78
2021/03/31 07:35:09;;;;;;;11.85;5.75;;;16.50;33.90;;;;;;5071315;28;20946;-78
2021/03/31 07:37:35;;;;;;;11.27;6.35;;;16.30;34.30;;;;;;5073281;28;20414;-78
2021/03/31 07:40:04;;;;;;;13.35;6.05;;;16.30;35.30;;;;;;5073027;28;20390;-79
2021/03/31 07:42:30;;;;;;;14.90;6.18;;;16.50;34.20;;;;;;5088699;28;20395;-78
2021/03/31 07:44:59;;;;;;;12.20;6.10;;;17.00;32.70;;;;;;5073205;28;20402;-79
2021/03/31 07:47:26;;;;;;;15.45;6.20;;;17.10;32.80;;;;;;5054477;28;20487;-79
2021/03/31 07:49:54;;;;;;;14.18;6.88;;;17.00;33.70;;;;;;5073311;28;20412;-78
2021/03/31 07:52:19;;;;;;;14.43;6.43;;;17.10;33.80;;;;;;5071334;28;20388;-79
2021/03/31 07:54:45;;;;;;;15.97;6.70;;;16.90;33.30;;;;;;5073099;28;20403;-79
2021/03/31 07:57:28;;;;;;;21.20;7.20;;;17.20;34.10;;;;;;5071835;28;20399;-79
2021/03/31 07:59:54;;;;;;;12.33;6.23;;;17.30;33.10;;;;;;5073262;28;20380;-79
2021/03/31 08:02:21;;;;;;;12.83;6.43;;;17.30;34.00;;;;;;5072442;28;20782;-79
2021/03/31 08:04:46;;;;;;;15.60;6.15;;;17.50;32.10;;;;;;5071436;28;20391;-78
2021/03/31 08:07:19;;;;;;;12.90;5.72;;;17.80;32.80;;;;;;5072397;28;20387;-79
2021/03/31 08:09:45;;;;;;;13.35;6.45;;;17.50;32.70;;;;;;5072607;28;20383;-79
2021/03/31 08:12:11;;;;;;;11.30;6.17;;;17.80;32.90;;;;;;5073230;28;20383;-79
2021/03/31 08:14:38;;;;;;;14.75;6.07;;;17.70;33.30;;;;;;5072566;28;20414;-79
2021/03/31 08:17:12;;;;;;;11.75;6.10;;;18.00;32.40;;;;;;5072404;28;20887;-79
2021/03/31 08:19:42;;;;;;;14.23;6.43;;;18.10;33.00;;;;;;5072423;28;20410;-79
2021/03/31 08:22:30;;;;;;;17.13;6.30;;;18.20;31.30;;;;;;5072958;28;20388;-79
2021/03/31 08:24:58;;;;;;;15.85;6.18;;;18.40;31.60;;;;;;5087976;28;20450;-79
2021/03/31 08:27:27;;;;;;;15.75;6.20;;;18.40;32.30;;;;;;5053861;28;20718;-79
2021/03/31 08:29:56;;;;;;;10.95;5.72;;;18.70;33.20;;;;;;5072433;28;20391;-79
2021/03/31 08:32:23;;;;;;;11.30;5.72;;;18.70;32.20;;;;;;5072334;28;20471;-79
2021/03/31 08:34:49;;;;;;;13.32;5.53;;;19.00;30.20;;;;;;5072461;28;20439;-78
2021/03/31 08:37:28;;;;;;;12.55;5.70;;;19.10;30.10;;;;;;5070497;28;20423;-79
2021/03/31 08:40:00;;;;;;;13.02;5.70;;;19.30;29.50;;;;;;5072518;28;20689;-79
2021/03/31 08:42:25;;;;;;;15.27;5.57;;;19.80;29.00;;;;;;5072188;28;20706;-79
2021/03/31 08:44:56;;;;;;;14.50;6.00;;;19.80;28.90;;;;;;5072248;28;20379;-78
2021/03/31 08:47:29;;;;;;;15.48;5.50;;;19.80;31.60;;;;;;5070467;28;20387;-79
2021/03/31 08:50:25;;;;;;;10.65;4.78;;;19.90;29.80;;;;;;5072099;28;20670;-79
2021/03/31 08:52:58;;;;;;;8.23;4.50;;;19.80;29.10;;;;;;5086626;28;20441;-78
2021/03/31 08:55:29;;;;;;;8.63;4.35;;;20.40;29.80;;;;;;5071500;28;20410;-78
2021/03/31 08:57:55;;;;;;;10.52;4.30;;;20.90;26.90;;;;;;5071968;28;20860;-78
2021/03/31 09:00:21;;;;;;;9.98;4.35;;;20.90;27.60;;;;;;5072360;28;20387;-78
2021/03/31 09:02:46;;;;;;;9.97;3.93;;;20.90;26.30;;;;;;5071694;28;20376;-79
2021/03/31 09:05:14;;;;;;;8.85;4.40;;;21.00;27.40;;;;;;5071459;28;20773;-79
2021/03/31 09:07:39;;;;;;;8.95;4.15;;;21.40;28.00;;;;;;5069633;28;20514;-78
2021/03/31 09:10:11;;;;;;;11.10;4.70;;;21.30;26.40;;;;;;5071795;28;20899;-79
2021/03/31 09:12:36;;;;;;;11.85;4.72;;;21.30;26.70;;;;;;5071268;28;20467;-79
2021/03/31 09:15:03;;;;;;;9.10;4.60;;;21.50;25.50;;;;;;5053752;28;20542;-79
2021/03/31 09:17:30;;;;;;;12.43;4.90;;;21.50;27.10;;;;;;5069565;28;20805;-79
2021/03/31 09:20:03;;;;;;;12.52;4.88;;;21.50;26.10;;;;;;5071900;28;20376;-79
2021/03/31 09:22:30;;;;;;;10.85;4.70;;;22.10;26.20;;;;;;5070168;28;20401;-79
2021/03/31 09:24:59;;;;;;;11.30;4.72;;;21.80;26.10;;;;;;5070442;28;20427;-79
2021/03/31 09:27:27;;;;;;;12.05;4.80;;;22.80;25.60;;;;;;5069602;28;20943;-79
2021/03/31 09:29:55;;;;;;;11.90;4.77;;;22.80;26.40;;;;;;5071828;28;20390;-79
2021/03/31 09:32:29;;;;;;;8.48;4.18;;;22.90;25.60;;;;;;5071376;28;20856;-79
2021/03/31 09:34:54;;;;;;;7.47;4.30;;;22.30;26.60;;;;;;5070991;28;20792;-78
2021/03/31 09:37:20;;;;;;;7.03;4.17;;;23.00;25.90;;;;;;5071058;28;20391;-78
2021/03/31 09:39:57;;;;;;;13.40;4.45;;;22.80;26.40;;;;;;5071022;28;20379;-78
2021/03/31 09:42:32;;;;;;;10.38;4.80;;;22.00;25.80;;;;;;5069987;28;20558;-78
2021/03/31 09:44:59;;;;;;;12.00;5.00;;;22.30;25.70;;;;;;5071003;28;20388;-78
2021/03/31 09:47:27;;;;;;;10.67;4.97;;;22.40;25.90;;;;;;5070398;28;20384;-79
2021/03/31 09:49:53;;;;;;;12.00;4.82;;;23.00;25.60;;;;;;5070771;28;20384;-78
2021/03/31 09:52:29;;;;;;;7.45;4.88;;;23.00;24.80;;;;;;5069879;28;20446;-78
2021/03/31 09:54:59;;;;;;;9.65;4.70;;;22.50;26.60;;;;;;5070788;28;20400;-79
2021/03/31 09:57:26;;;;;;;10.25;4.40;;;22.60;25.40;;;;;;5069643;28;20444;-79
2021/03/31 09:59:52;;;;;;;10.20;4.28;;;24.00;26.60;;;;;;5071116;28;20430;-80
2021/03/31 10:02:17;;;;;;;10.98;4.43;;;23.30;25.40;;;;;;5070480;28;20418;-79
2021/03/31 10:04:43;;;;;;;12.70;4.63;;;23.50;26.40;;;;;;5086309;28;20398;-79
2021/03/31 10:07:16;;;;;;;14.67;5.17;;;23.90;24.90;;;;;;5076346;28;20390;-79
2021/03/31 10:09:44;;;;;;;10.50;4.85;;;24.00;23.20;;;;;;5090466;28;20410;-79
2021/03/31 10:12:12;;;;;;;12.63;5.00;;;23.70;23.40;;;;;;5069476;28;20386;-80
2021/03/31 10:14:49;;;;;;;9.40;4.53;;;23.60;24.70;;;;;;5090853;28;20409;-79
2021/03/31 10:17:19;;;;;;;8.65;4.13;;;23.90;26.00;;;;;;5072038;28;20866;-81
2021/03/31 10:19:45;;;;;;;10.18;4.60;;;24.30;24.40;;;;;;5072375;28;20520;-79
2021/03/31 10:22:12;;;;;;;12.05;4.70;;;24.30;24.50;;;;;;5071724;28;20953;-80
2021/03/31 10:24:40;;;;;;;12.23;4.50;;;24.30;22.90;;;;;;5090501;28;20649;-79
2021/03/31 10:27:07;;;;;;;7.27;3.83;;;24.30;24.50;;;;;;5090044;28;20382;-80
2021/03/31 10:29:33;;;;;;;11.82;4.40;;;24.80;24.00;;;;;;5090413;28;20389;-80
2021/03/31 10:32:00;;;;;;;8.55;3.97;;;24.70;23.50;;;;;;5072195;28;20738;-81
2021/03/31 10:34:40;;;;;;;9.00;3.58;;;24.40;23.30;;;;;;5105680;28;20966;-81
2021/03/31 10:37:17;;;;;;;12.85;3.92;;;25.10;23.00;;;;;;5090194;28;20471;-80
2021/03/31 10:50:46;;;;;;;8.68;3.55;;;24.70;24.70;;;;;;5090251;28;20458;-80
2021/03/31 10:53:12;;;;;;;10.55;3.20;;;24.60;22.80;;;;;;5071683;28;20394;-81
2021/03/31 10:55:41;;;;;;;6.90;2.70;;;24.90;22.40;;;;;;5072068;28;20488;-80
2021/03/31 10:58:07;;;;;;;10.60;3.53;;;24.90;22.90;;;;;;5090440;28;20456;-80
2021/03/31 11:00:35;;;;;;;7.03;3.08;;;24.80;21.50;;;;;;5090325;28;20447;-80
2021/03/31 11:03:01;;;;;;;6.95;2.80;;;24.60;21.90;;;;;;5072067;28;20477;-80
2021/03/31 11:05:27;;;;;;;7.95;3.35;;;24.70;22.90;;;;;;5089928;28;20473;-81
2021/03/31 11:07:52;;;;;;;6.78;3.55;;;24.90;22.70;;;;;;5089950;28;20470;-80
2021/03/31 11:10:18;;;;;;;7.00;3.30;;;24.90;23.40;;;;;;5071115;28;20501;-80
2021/03/31 11:12:44;;;;;;;5.97;2.65;;;24.80;21.00;;;;;;5072071;28;20469;-80
2021/03/31 11:15:16;;;;;;;6.50;2.80;;;24.50;22.20;;;;;;5089920;28;20882;-80
2021/03/31 11:25:53;;;;;;;7.25;2.60;;;25.00;22.20;;;;;;5090031;28;20492;-79
2021/03/31 11:28:19;;;;;;;7.68;2.70;;;25.20;22.20;;;;;;5089445;28;20472;-79
2021/03/31 11:30:45;;;;;;;5.87;2.70;;;25.30;21.80;;;;;;5090350;28;20424;-79
2021/03/31 11:33:11;;;;;;;5.38;2.50;;;25.20;23.30;;;;;;5089626;28;20468;-81
2021/03/31 11:35:37;;;;;;;7.60;2.75;;;26.20;19.10;;;;;;5090079;28;20445;-80
2021/03/31 11:38:03;;;;;;;5.20;2.83;;;25.80;20.10;;;;;;5088978;28;20428;-80
2021/03/31 11:40:29;;;;;;;6.53;2.75;;;25.60;22.10;;;;;;5105762;28;20480;-79
2021/03/31 11:42:54;;;;;;;4.82;2.55;;;25.30;21.30;;;;;;5105281;28;20386;-80
2021/03/31 11:45:20;;;;;;;6.72;2.55;;;25.50;20.90;;;;;;5105225;28;20390;-79
2021/03/31 11:47:45;;;;;;;6.17;2.97;;;26.10;21.60;;;;;;5089451;28;20382;-80
2021/03/31 11:50:11;;;;;;;6.78;3.33;;;26.20;20.10;;;;;;5104388;28;20436;-81
2021/03/31 11:52:37;;;;;;;11.03;3.10;;;26.20;21.20;;;;;;5090008;28;20370;-81
2021/03/31 11:55:04;;;;;;;9.18;3.33;;;25.60;22.00;;;;;;5089398;28;20394;-80
2021/03/31 11:57:29;;;;;;;6.55;3.05;;;26.30;21.20;;;;;;5104559;28;20637;-82
2021/03/31 11:59:55;;;;;;;10.10;3.20;;;25.70;21.20;;;;;;5089505;28;20975;-80
2021/03/31 12:02:20;;;;;;;7.00;3.45;;;25.70;21.80;;;;;;5090316;28;20418;-81
2021/03/31 12:04:46;;;;;;;8.73;2.97;;;25.60;22.80;;;;;;5071508;28;20386;-81
2021/03/31 12:07:13;;;;;;;6.93;2.80;;;25.50;22.60;;;;;;5105289;28;20382;-80
2021/03/31 12:09:41;;;;;;;7.22;2.63;;;25.70;20.60;;;;;;5089598;28;20605;-81
2021/03/31 12:12:09;;;;;;;6.70;3.20;;;26.30;20.60;;;;;;5105464;28;20393;-81
2021/03/31 12:14:35;;;;;;;9.55;3.45;;;26.30;20.90;;;;;;5089528;28;20398;-81
2021/03/31 12:17:02;;;;;;;10.33;3.23;;;26.20;20.50;;;;;;5089087;28;20432;-80
2021/03/31 12:19:28;;;;;;;4.38;2.60;;;26.20;20.70;;;;;;5071577;28;20739;-80
2021/03/31 12:21:54;;;;;;;7.93;2.72;;;26.80;20.60;;;;;;5074877;28;20469;-81
2021/03/31 12:24:21;;;;;;;11.25;3.20;;;26.40;21.10;;;;;;5093516;28;20794;-80
2021/03/31 12:26:46;;;;;;;9.65;2.70;;;26.00;19.70;;;;;;5092612;28;20473;-80
2021/03/31 12:29:12;;;;;;;5.32;2.42;;;26.60;20.50;;;;;;5109075;28;20449;-80
2021/03/31 12:31:37;;;;;;;5.13;2.07;;;26.60;19.90;;;;;;5074423;28;20432;-79
2021/03/31 12:34:03;;;;;;;6.43;2.20;;;25.50;21.00;;;;;;5093224;28;20382;-79
2021/03/31 12:36:29;;;;;;;4.75;2.30;;;26.40;20.80;;;;;;5092525;28;20390;-79
2021/03/31 12:38:54;;;;;;;7.50;2.40;;;26.90;20.00;;;;;;5093022;28;20910;-79
2021/03/31 12:41:20;;;;;;;5.37;2.20;;;26.70;20.00;;;;;;5074149;28;20374;-79
2021/03/31 12:43:45;;;;;;;6.22;2.40;;;26.60;19.60;;;;;;5074189;28;20734;-79
2021/03/31 12:46:11;;;;;;;12.63;2.70;;;26.50;19.70;;;;;;5092603;28;20417;-80
2021/03/31 12:48:37;;;;;;;6.20;2.40;;;26.20;18.40;;;;;;5091805;28;20785;-79
2021/03/31 12:51:09;;;;;;;7.23;2.57;;;25.70;20.20;;;;;;5092735;28;20799;-79
2021/03/31 12:53:38;;;;;;;5.70;2.45;;;26.40;21.80;;;;;;5092264;28;20417;-81
2021/03/31 12:56:04;;;;;;;7.32;2.50;;;26.50;19.40;;;;;;5108126;28;20406;-81
2021/03/31 12:58:31;;;;;;;8.27;2.60;;;26.70;19.40;;;;;;5091630;28;20781;-81
2021/03/31 13:01:01;;;;;;;8.15;2.90;;;26.40;18.80;;;;;;5092362;28;20381;-81
2021/03/31 13:03:27;;;;;;;6.57;2.30;;;26.40;19.80;;;;;;5092148;28;20382;-81
2021/03/31 13:05:52;;;;;;;5.50;2.40;;;26.40;21.30;;;;;;5092124;28;20378;-80
2021/03/31 13:08:18;;;;;;;6.77;2.60;;;26.80;19.30;;;;;;5091062;28;20383;-79
2021/03/31 13:10:45;;;;;;;7.30;2.60;;;26.80;19.20;;;;;;5073705;28;20507;-79
2021/03/31 13:13:26;;;;;;;9.07;2.10;;;26.30;21.70;;;;;;5092115;28;20374;-80